Time;durP1;ratioP1;P1;durP2;ratioP2;P2;SDS_P1;SDS_P2;PMS_P1;PMS_P2;Temp;Humidity;BMP_temperature;BMP_pressure;BME280_temperature;BME280_humidity;BME280_pressure;Samples;Min_cycle;Max_cycle;Signal;HPM_P1;HPM_P2
2021/01/28 00:01:10;;;;;;;2.8;1.7;;;;;;;;;;;;;
2021/01/28 00:03:35;;;;;;;2;1.3;;;;;;;;;;;;;
2021/01/28 00:06:01;;;;;;;4.8;1.7;;;;;;;;;;;;;
2021/01/28 00:08:30;;;;;;;3.2;1.6;;;;;;;;;;;;;
2021/01/28 00:10:55;;;;;;;2.5;1.4;;;;;;;;;;;;;
2021/01/28 00:13:20;;;;;;;3.4;2.3;;;;;;;;;;;;;
2021/01/28 00:15:46;;;;;;;3.2;2.1;;;;;;;;;;;;;
2021/01/28 00:18:11;;;;;;;2.9;1.9;;;;;;;;;;;;;
2021/01/28 00:20:36;;;;;;;2;1.6;;;;;;;;;;;;;
2021/01/28 00:23:04;;;;;;;2.5;1.3;;;;;;;;;;;;;
2021/01/28 00:25:29;;;;;;;1.1;0.9;;;;;;;;;;;;;
2021/01/28 00:27:55;;;;;;;1.9;1.3;;;;;;;;;;;;;
2021/01/28 00:30:20;;;;;;;1.2;1.1;;;;;;;;;;;;;
2021/01/28 00:32:45;;;;;;;2.3;1.7;;;;;;;;;;;;;
2021/01/28 00:35:10;;;;;;;4.3;1.8;;;;;;;;;;;;;
2021/01/28 00:37:35;;;;;;;3.1;1.9;;;;;;;;;;;;;
2021/01/28 00:40:00;;;;;;;4.2;2.5;;;;;;;;;;;;;
2021/01/28 00:42:25;;;;;;;7.7;3.1;;;;;;;;;;;;;
2021/01/28 00:44:51;;;;;;;5.2;2.7;;;;;;;;;;;;;
2021/01/28 00:47:16;;;;;;;3.3;1.8;;;;;;;;;;;;;
2021/01/28 00:49:42;;;;;;;3.9;2;;;;;;;;;;;;;
2021/01/28 00:52:07;;;;;;;7.3;2.7;;;;;;;;;;;;;
2021/01/28 00:54:34;;;;;;;2.8;1.7;;;;;;;;;;;;;
2021/01/28 00:56:59;;;;;;;5;1.9;;;;;;;;;;;;;
2021/01/28 00:59:25;;;;;;;3.1;1.6;;;;;;;;;;;;;
2021/01/28 01:01:50;;;;;;;1.8;1.6;;;;;;;;;;;;;
2021/01/28 01:04:16;;;;;;;6.1;1;;;;;;;;;;;;;
2021/01/28 01:06:41;;;;;;;6.4;1.7;;;;;;;;;;;;;
2021/01/28 01:09:07;;;;;;;5;1.8;;;;;;;;;;;;;
2021/01/28 01:11:32;;;;;;;3;2.1;;;;;;;;;;;;;
2021/01/28 01:13:59;;;;;;;3.2;1.8;;;;;;;;;;;;;
2021/01/28 01:16:24;;;;;;;4.1;2.2;;;;;;;;;;;;;
2021/01/28 01:18:50;;;;;;;2.5;1.6;;;;;;;;;;;;;
2021/01/28 01:21:15;;;;;;;3.9;2;;;;;;;;;;;;;
2021/01/28 01:23:41;;;;;;;2;1.3;;;;;;;;;;;;;
2021/01/28 01:26:06;;;;;;;3.3;1.7;;;;;;;;;;;;;
2021/01/28 01:28:33;;;;;;;2.9;1.8;;;;;;;;;;;;;
2021/01/28 01:30:58;;;;;;;1.4;1.3;;;;;;;;;;;;;
2021/01/28 01:33:25;;;;;;;6.2;2;;;;;;;;;;;;;
2021/01/28 01:35:50;;;;;;;4.9;1.8;;;;;;;;;;;;;
2021/01/28 01:38:15;;;;;;;6.6;2.2;;;;;;;;;;;;;
2021/01/28 01:40:40;;;;;;;1.8;1.5;;;;;;;;;;;;;
2021/01/28 01:43:05;;;;;;;2.1;1.5;;;;;;;;;;;;;
2021/01/28 01:45:30;;;;;;;3.1;1.8;;;;;;;;;;;;;
2021/01/28 01:47:56;;;;;;;2.5;1.5;;;;;;;;;;;;;
2021/01/28 01:50:22;;;;;;;2.4;1.3;;;;;;;;;;;;;
2021/01/28 01:52:48;;;;;;;1.8;1.4;;;;;;;;;;;;;
2021/01/28 01:55:14;;;;;;;4.1;1.6;;;;;;;;;;;;;
2021/01/28 01:57:40;;;;;;;1.9;1.4;;;;;;;;;;;;;
2021/01/28 02:00:05;;;;;;;1.2;1;;;;;;;;;;;;;
2021/01/28 02:02:31;;;;;;;1.3;0.9;;;;;;;;;;;;;
2021/01/28 02:04:57;;;;;;;3.6;1.3;;;;;;;;;;;;;
2021/01/28 02:07:22;;;;;;;2.4;0.8;;;;;;;;;;;;;
2021/01/28 02:09:47;;;;;;;1.6;1.3;;;;;;;;;;;;;
2021/01/28 02:12:12;;;;;;;0.5;0.5;;;;;;;;;;;;;
2021/01/28 02:14:39;;;;;;;0.7;0.7;;;;;;;;;;;;;
2021/01/28 02:17:04;;;;;;;1.6;0.9;;;;;;;;;;;;;
2021/01/28 02:19:30;;;;;;;0.9;0.9;;;;;;;;;;;;;
2021/01/28 02:21:55;;;;;;;7;3.1;;;;;;;;;;;;;
2021/01/28 02:24:22;;;;;;;2;1;;;;;;;;;;;;;
2021/01/28 02:26:47;;;;;;;2.5;1.2;;;;;;;;;;;;;
2021/01/28 02:29:13;;;;;;;2;1.2;;;;;;;;;;;;;
2021/01/28 02:31:39;;;;;;;1.6;0.8;;;;;;;;;;;;;
2021/01/28 02:34:04;;;;;;;1.2;1;;;;;;;;;;;;;
2021/01/28 02:36:29;;;;;;;2.4;1.3;;;;;;;;;;;;;
2021/01/28 02:38:54;;;;;;;1.3;1.1;;;;;;;;;;;;;
2021/01/28 02:41:20;;;;;;;5.3;2.1;;;;;;;;;;;;;
2021/01/28 02:43:45;;;;;;;7.1;3.7;;;;;;;;;;;;;
2021/01/28 02:46:11;;;;;;;2.2;1.6;;;;;;;;;;;;;
2021/01/28 02:48:37;;;;;;;2.4;1.5;;;;;;;;;;;;;
2021/01/28 02:51:02;;;;;;;3.3;1.6;;;;;;;;;;;;;
2021/01/28 02:53:27;;;;;;;3.4;1.7;;;;;;;;;;;;;
2021/01/28 02:55:53;;;;;;;2.4;1.5;;;;;;;;;;;;;
2021/01/28 02:58:19;;;;;;;2.5;1.5;;;;;;;;;;;;;
2021/01/28 03:00:45;;;;;;;2.8;1.5;;;;;;;;;;;;;
2021/01/28 03:03:10;;;;;;;1.8;1;;;;;;;;;;;;;
2021/01/28 03:05:36;;;;;;;1.3;1.2;;;;;;;;;;;;;
2021/01/28 03:08:01;;;;;;;4.6;1.7;;;;;;;;;;;;;
2021/01/28 03:10:31;;;;;;;3.2;1.2;;;;;;;;;;;;;
2021/01/28 03:12:59;;;;;;;1.9;1.2;;;;;;;;;;;;;
2021/01/28 03:15:24;;;;;;;5.1;2.2;;;;;;;;;;;;;
2021/01/28 03:17:50;;;;;;;1.4;1.3;;;;;;;;;;;;;
2021/01/28 03:20:15;;;;;;;0.8;0.8;;;;;;;;;;;;;
2021/01/28 03:22:41;;;;;;;0.8;0.8;;;;;;;;;;;;;
2021/01/28 03:25:06;;;;;;;3.5;1.5;;;;;;;;;;;;;
2021/01/28 03:27:32;;;;;;;1.3;1.2;;;;;;;;;;;;;
2021/01/28 03:29:57;;;;;;;1.1;1;;;;;;;;;;;;;
2021/01/28 03:32:23;;;;;;;1.4;0.7;;;;;;;;;;;;;
2021/01/28 03:34:48;;;;;;;1.4;0.9;;;;;;;;;;;;;
2021/01/28 03:37:14;;;;;;;1.4;1.2;;;;;;;;;;;;;
2021/01/28 03:39:39;;;;;;;1.6;0.9;;;;;;;;;;;;;
2021/01/28 03:42:05;;;;;;;3.6;1.1;;;;;;;;;;;;;
2021/01/28 03:44:31;;;;;;;0.9;0.8;;;;;;;;;;;;;
2021/01/28 03:46:57;;;;;;;1.4;1.1;;;;;;;;;;;;;
2021/01/28 03:49:22;;;;;;;2.2;1.3;;;;;;;;;;;;;
2021/01/28 03:51:48;;;;;;;2.9;1;;;;;;;;;;;;;
2021/01/28 03:54:13;;;;;;;1.3;1;;;;;;;;;;;;;
2021/01/28 03:56:39;;;;;;;6.6;1.1;;;;;;;;;;;;;
2021/01/28 03:59:04;;;;;;;2.3;1;;;;;;;;;;;;;
2021/01/28 04:02:30;;;;;;;4.4;1.3;;;;;;;0.28;85.41895;933.0895;;;;
2021/01/28 04:04:55;;;;;;;1.2;1;;;;;;;0.11;85.69629;933.12;;;;
2021/01/28 04:07:22;;;;;;;1;0.9;;;;;;;0.1;85.83984;932.9852;;;;
2021/01/28 04:09:47;;;;;;;1.3;1.2;;;;;;;0.16;85.78516;933.0947;;;;
2021/01/28 04:12:19;;;;;;;0.7;0.7;;;;;;;0.15;85.67188;933.0545;;;;
2021/01/28 04:14:47;;;;;;;1.6;1.2;;;;;;;0.22;85.24805;932.9695;;;;
2021/01/28 04:17:13;;;;;;;2.3;1;;;;;;;0.24;85.10938;932.9354;;;;
2021/01/28 04:19:42;;;;;;;2.1;1.2;;;;;;;0.25;84.91016;932.8644;;;;
2021/01/28 04:22:14;;;;;;;1.2;1.1;;;;;;;0.29;84.71875;932.8817;;;;
2021/01/28 04:24:43;;;;;;;5.1;2.4;;;;;;;0.33;84.50098;932.9025;;;;
2021/01/28 04:27:13;;;;;;;2.5;1.7;;;;;;;0.28;84.54785;932.856;;;;
2021/01/28 04:29:38;;;;;;;3.3;1.7;;;;;;;0.33;84.4248;932.7125;;;;
2021/01/28 04:32:08;;;;;;;1.8;1.3;;;;;;;0.37;84.3877;932.76;;;;
2021/01/28 04:34:38;;;;;;;0.8;0.8;;;;;;;0.24;84.55176;932.7319;;;;
2021/01/28 04:37:08;;;;;;;3.9;1.4;;;;;;;0.14;85.22266;932.7198;;;;
2021/01/28 04:39:33;;;;;;;7.5;1.1;;;;;;;-0.03;86.10156;932.7268;;;;
2021/01/28 04:42:00;;;;;;;2.1;1.2;;;;;;;-0.1;87.13574;932.7045;;;;
2021/01/28 04:44:25;;;;;;;1.2;1;;;;;;;-0.04;87.33594;932.7658;;;;
2021/01/28 04:46:57;;;;;;;1.9;1.4;;;;;;;0.04;87.28613;932.733;;;;
2021/01/28 04:49:25;;;;;;;5.6;1.2;;;;;;;0.22;86.89941;932.6691;;;;
2021/01/28 04:51:51;;;;;;;3.6;1.5;;;;;;;0.4;86.45605;932.6092;;;;
2021/01/28 04:54:17;;;;;;;1.8;1.3;;;;;;;0.57;85.67871;932.5496;;;;
2021/01/28 04:56:42;;;;;;;1.7;0.9;;;;;;;0.69;84.76465;932.5698;;;;
2021/01/28 04:59:11;;;;;;;1.8;0.9;;;;;;;0.59;84.34375;932.5158;;;;
2021/01/28 05:01:36;;;;;;;0.9;0.9;;;;;;;0.58;84.58496;932.3923;;;;
2021/01/28 05:04:05;;;;;;;4;1.2;;;;;;;0.59;84.65625;932.3558;;;;
2021/01/28 05:06:30;;;;;;;1.9;1.2;;;;;;;0.53;84.88867;932.2949;;;;
2021/01/28 05:08:58;;;;;;;1.9;1.1;;;;;;;0.31;86.18262;932.2686;;;;
2021/01/28 05:11:23;;;;;;;1.8;1.3;;;;;;;0.25;87.26172;932.2012;;;;
2021/01/28 05:13:49;;;;;;;1.2;1;;;;;;;0.15;88.41113;932.1691;;;;
2021/01/28 05:16:26;;;;;;;1.8;1.1;;;;;;;0.35;87.70605;932.1167;;;;
2021/01/28 05:18:51;;;;;;;3.8;2.4;;;;;;;0.18;88.20508;932.0956;;;;
2021/01/28 05:21:16;;;;;;;1.8;1.5;;;;;;;0.24;88.375;932.1266;;;;
2021/01/28 05:23:41;;;;;;;2.9;1.1;;;;;;;0.17;88.63867;932.0861;;;;
2021/01/28 05:26:13;;;;;;;2.2;1.2;;;;;;;0.08;89.34375;932.1014;;;;
2021/01/28 05:28:38;;;;;;;1.5;1.2;;;;;;;0.01;90.15234;932.0117;;;;
2021/01/28 05:31:03;;;;;;;3;1.7;;;;;;;0.07;90.67871;932.0485;;;;
2021/01/28 05:33:37;;;;;;;2.2;1.3;;;;;;;0.24;90.37012;931.9741;;;;
2021/01/28 05:36:02;;;;;;;2.2;0.8;;;;;;;0.34;89.9248;931.9285;;;;
2021/01/28 05:38:27;;;;;;;2.9;1;;;;;;;0.58;89.25;931.8653;;;;
2021/01/28 05:40:53;;;;;;;4.7;1.1;;;;;;;0.74;88.53613;931.8408;;;;
2021/01/28 05:43:18;;;;;;;6;1.7;;;;;;;0.91;87.91406;931.7249;;;;
2021/01/28 05:45:43;;;;;;;2.1;1.2;;;;;;;1.04;86.94434;931.8036;;;;
2021/01/28 05:48:08;;;;;;;0.6;0.6;;;;;;;1.1;86.08594;931.7556;;;;
2021/01/28 05:50:34;;;;;;;0.5;0.5;;;;;;;1.16;85.61914;931.6478;;;;
2021/01/28 05:52:59;;;;;;;0.4;0.4;;;;;;;1.05;85.6084;931.5894;;;;
2021/01/28 05:55:24;;;;;;;1;0.7;;;;;;;1.14;85.45898;931.573;;;;
2021/01/28 05:57:49;;;;;;;0.7;0.7;;;;;;;1.14;85.27832;931.6417;;;;
2021/01/28 06:00:14;;;;;;;1.8;1.4;;;;;;;0.95;86.15723;931.6359;;;;
2021/01/28 06:02:39;;;;;;;3.4;1.4;;;;;;;0.87;87.12109;931.5092;;;;
2021/01/28 06:05:05;;;;;;;1.8;0.9;;;;;;;0.88;87.62695;931.4202;;;;
2021/01/28 06:07:30;;;;;;;0.7;0.6;;;;;;;1.07;87.55469;931.3777;;;;
2021/01/28 06:09:55;;;;;;;3.5;1.8;;;;;;;1.22;87.20703;931.3837;;;;
2021/01/28 06:12:21;;;;;;;4.3;2.8;;;;;;;1.37;86.71094;931.3298;;;;
2021/01/28 06:14:46;;;;;;;4.6;3.5;;;;;;;1.47;86.06055;931.2883;;;;
2021/01/28 06:17:11;;;;;;;13.3;6.5;;;;;;;1.58;85.57031;931.2692;;;;
2021/01/28 06:19:42;;;;;;;4.1;2.2;;;;;;;1.64;85.24609;931.2352;;;;
2021/01/28 06:22:07;;;;;;;7.5;2.5;;;;;;;1.53;85.50391;931.2488;;;;
2021/01/28 06:24:32;;;;;;;24.3;10.8;;;;;;;1.51;85.9248;931.2184;;;;
2021/01/28 06:26:57;;;;;;;11.9;7.5;;;;;;;1.65;85.87402;931.1908;;;;
2021/01/28 06:29:22;;;;;;;15.1;2.6;;;;;;;1.75;85.71484;931.1373;;;;
2021/01/28 06:31:47;;;;;;;3.2;2.4;;;;;;;1.69;85.83789;931.1144;;;;
2021/01/28 06:34:13;;;;;;;3.1;2.7;;;;;;;1.66;86.33398;931.1322;;;;
2021/01/28 06:36:38;;;;;;;4.2;2.6;;;;;;;1.76;86.65625;931.0128;;;;
2021/01/28 06:39:06;;;;;;;6.2;4.2;;;;;;;1.69;86.59863;931.0131;;;;
2021/01/28 06:41:31;;;;;;;6.5;3.7;;;;;;;1.58;87.18945;931.1262;;;;
2021/01/28 06:44:01;;;;;;;6.8;2.7;;;;;;;1.51;87.73535;931.0583;;;;
2021/01/28 06:46:27;;;;;;;8.3;2.6;;;;;;;1.39;88.58105;931.0636;;;;
2021/01/28 06:48:52;;;;;;;2.2;1.8;;;;;;;1.41;88.6875;931.012;;;;
2021/01/28 06:51:20;;;;;;;2.2;1.6;;;;;;;1.56;88.38281;931.0441;;;;
2021/01/28 06:53:45;;;;;;;2.8;1.8;;;;;;;1.74;87.8291;931.0524;;;;
2021/01/28 06:56:11;;;;;;;3.7;2.2;;;;;;;1.89;87.57715;931.017;;;;
2021/01/28 06:58:36;;;;;;;7.1;2.8;;;;;;;2.04;87.01758;931.0015;;;;
2021/01/28 07:01:01;;;;;;;27.5;12.9;;;;;;;2.11;86.58496;930.969;;;;
2021/01/28 07:03:26;;;;;;;15.2;7;;;;;;;2.17;86.2373;930.9462;;;;
2021/01/28 07:05:51;;;;;;;7.9;4.8;;;;;;;2.19;86.26367;930.9084;;;;
2021/01/28 07:08:16;;;;;;;7.1;3.9;;;;;;;2.21;86.09961;930.9005;;;;
2021/01/28 07:10:42;;;;;;;5.8;3.5;;;;;;;2.25;86.06348;930.805;;;;
2021/01/28 07:13:07;;;;;;;5.2;2.9;;;;;;;2.23;86.26172;930.8148;;;;
2021/01/28 07:15:32;;;;;;;4.8;2.8;;;;;;;2.24;86.31738;930.7639;;;;
2021/01/28 07:17:57;;;;;;;3.5;2;;;;;;;2.33;86.15918;930.7933;;;;
2021/01/28 07:20:23;;;;;;;4.4;2.1;;;;;;;2.41;85.85938;930.7548;;;;
2021/01/28 07:22:48;;;;;;;2.1;1.8;;;;;;;2.45;85.68945;930.796;;;;
2021/01/28 07:25:13;;;;;;;3.5;1.4;;;;;;;2.56;85.63281;930.7361;;;;
2021/01/28 07:27:41;;;;;;;2;1.5;;;;;;;2.6;85.40527;930.7678;;;;
2021/01/28 07:30:06;;;;;;;3.8;1.7;;;;;;;2.59;85.71875;930.6207;;;;
2021/01/28 07:32:33;;;;;;;1.6;1.4;;;;;;;2.72;85.48438;930.6085;;;;
2021/01/28 07:34:58;;;;;;;6.2;2.6;;;;;;;2.78;85.39648;930.7459;;;;
2021/01/28 07:37:27;;;;;;;4.4;1.7;;;;;;;2.79;85.11816;930.6456;;;;
2021/01/28 07:39:52;;;;;;;6.3;1.5;;;;;;;2.66;85.97852;930.6298;;;;
2021/01/28 07:42:17;;;;;;;4.3;2.5;;;;;;;2.66;86.62793;930.611;;;;
2021/01/28 07:44:43;;;;;;;3.6;1.9;;;;;;;2.7;86.87305;930.5775;;;;
2021/01/28 07:47:08;;;;;;;4.4;1.9;;;;;;;2.79;87.36035;930.5733;;;;
2021/01/28 07:49:33;;;;;;;4.5;1.4;;;;;;;2.87;87.30078;930.5327;;;;
2021/01/28 07:52:01;;;;;;;3.9;2.2;;;;;;;2.87;87.35449;930.5616;;;;
2021/01/28 07:54:26;;;;;;;3.3;2.3;;;;;;;2.92;87.5791;930.3859;;;;
2021/01/28 07:56:54;;;;;;;2.2;1.8;;;;;;;3.08;87.25391;930.461;;;;
2021/01/28 07:59:19;;;;;;;2.8;2.1;;;;;;;3.1;87.01074;930.467;;;;
2021/01/28 08:01:45;;;;;;;3.9;2;;;;;;;3.08;87.17285;930.3586;;;;
2021/01/28 08:04:11;;;;;;;3.5;1.7;;;;;;;3.02;87.65527;930.3415;;;;
2021/01/28 08:06:36;;;;;;;1.2;0.7;;;;;;;2.94;88.7041;930.3772;;;;
2021/01/28 08:09:05;;;;;;;3.2;1.8;;;;;;;3.09;88.19824;930.3762;;;;
2021/01/28 08:11:34;;;;;;;3.8;2.7;;;;;;;3.03;88.0498;930.4102;;;;
2021/01/28 08:13:59;;;;;;;9.7;4.3;;;;;;;2.75;88.87988;930.2958;;;;
2021/01/28 08:16:31;;;;;;;9.9;5.1;;;;;;;2.85;89.54004;930.3733;;;;
2021/01/28 08:18:57;;;;;;;8.9;4.8;;;;;;;3.03;88.83594;930.3284;;;;
2021/01/28 08:21:22;;;;;;;11.2;4.4;;;;;;;3.17;88.125;930.3491;;;;
2021/01/28 08:23:51;;;;;;;18;10.9;;;;;;;3.13;87.88965;930.3937;;;;
2021/01/28 08:26:16;;;;;;;12.4;4.9;;;;;;;3.15;87.72852;930.3605;;;;
2021/01/28 08:28:41;;;;;;;8.6;4.7;;;;;;;3.08;87.72461;930.3642;;;;
2021/01/28 08:31:10;;;;;;;12.5;6;;;;;;;3.16;87.69434;930.3787;;;;
2021/01/28 08:33:35;;;;;;;12.1;5.4;;;;;;;3.18;87.75684;930.3006;;;;
2021/01/28 08:36:04;;;;;;;8.1;4;;;;;;;3.16;87.9209;930.2859;;;;
2021/01/28 08:38:30;;;;;;;10.8;5;;;;;;;3.21;87.77344;930.3125;;;;
2021/01/28 08:40:58;;;;;;;7;4.1;;;;;;;3.33;87.39355;930.1918;;;;
2021/01/28 08:43:23;;;;;;;10.8;4.3;;;;;;;3.29;87.7002;930.2098;;;;
2021/01/28 08:45:49;;;;;;;4;2.9;;;;;;;3.35;87.74512;930.0963;;;;
2021/01/28 08:48:18;;;;;;;4.4;2.9;;;;;;;3.33;87.82031;929.9622;;;;
2021/01/28 08:50:43;;;;;;;3.2;2.1;;;;;;;3.29;88.13965;929.9055;;;;
2021/01/28 08:53:08;;;;;;;2.4;1.8;;;;;;;3.42;87.98633;929.8315;;;;
2021/01/28 08:55:36;;;;;;;2.6;1.7;;;;;;;3.5;87.67578;929.8286;;;;
2021/01/28 08:58:02;;;;;;;1.7;1.4;;;;;;;3.41;87.85938;929.785;;;;
2021/01/28 09:00:27;;;;;;;2.5;1.6;;;;;;;3.59;87.76172;929.74;;;;
2021/01/28 09:02:52;;;;;;;2.7;1.4;;;;;;;3.66;87.22461;929.7307;;;;
2021/01/28 09:05:18;;;;;;;1.6;1;;;;;;;3.68;87.4209;929.7288;;;;
2021/01/28 09:07:43;;;;;;;2.8;1.2;;;;;;;3.87;87.04395;929.6559;;;;
2021/01/28 09:10:08;;;;;;;1.6;1;;;;;;;3.99;86.52832;929.6528;;;;
2021/01/28 09:12:34;;;;;;;1.2;0.9;;;;;;;4.05;86.6084;929.6692;;;;
2021/01/28 09:14:58;;;;;;;1.2;0.9;;;;;;;4.16;85.94434;929.6042;;;;
2021/01/28 09:17:26;;;;;;;1.2;0.6;;;;;;;4.25;85.41113;929.5834;;;;
2021/01/28 09:19:57;;;;;;;2;0.9;;;;;;;4.36;85.11914;929.5186;;;;
2021/01/28 09:22:26;;;;;;;2.4;1.7;;;;;;;4.32;84.40137;929.5005;;;;
2021/01/28 09:24:54;;;;;;;3.1;2.3;;;;;;;4.24;84.8584;929.5344;;;;
2021/01/28 09:27:19;;;;;;;48.1;20.9;;;;;;;3.95;87.00391;929.5496;;;;
2021/01/28 09:29:54;;;;;;;4.5;2.3;;;;;;;3.87;87.61719;929.5803;;;;
2021/01/28 09:32:22;;;;;;;16.8;7.1;;;;;;;3.7;88.21289;929.5906;;;;
2021/01/28 09:34:49;;;;;;;7.6;3;;;;;;;3.6;88.37012;929.4961;;;;
2021/01/28 09:37:21;;;;;;;5;2.8;;;;;;;3.58;88.64746;929.5059;;;;
2021/01/28 09:39:46;;;;;;;7.4;3.3;;;;;;;3.57;88.7334;929.4939;;;;
2021/01/28 09:42:11;;;;;;;7.3;3.7;;;;;;;3.65;88.58398;929.4677;;;;
2021/01/28 09:44:42;;;;;;;18.9;10.5;;;;;;;3.64;88.93066;929.4651;;;;
2021/01/28 09:47:06;;;;;;;15.5;8.9;;;;;;;3.76;88.61719;929.4889;;;;
2021/01/28 09:49:31;;;;;;;17.4;7.7;;;;;;;3.9;88.2207;929.4975;;;;
2021/01/28 09:51:59;;;;;;;9.9;4.1;;;;;;;4.02;87.40137;929.4331;;;;
2021/01/28 09:54:24;;;;;;;5.4;4.1;;;;;;;4.13;86.68066;929.3753;;;;
2021/01/28 09:56:52;;;;;;;8.1;4.2;;;;;;;4.25;86.04102;929.3936;;;;
2021/01/28 09:59:17;;;;;;;11.1;6;;;;;;;4.31;85.60156;929.3434;;;;
2021/01/28 10:01:46;;;;;;;9;5.6;;;;;;;4.26;85.31348;929.3836;;;;
2021/01/28 10:04:11;;;;;;;14;6.6;;;;;;;4.04;86.16797;929.3231;;;;
2021/01/28 10:06:38;;;;;;;5.1;2.8;;;;;;;3.89;87.21582;929.2625;;;;
2021/01/28 10:09:02;;;;;;;4.7;2.3;;;;;;;3.95;87.2627;929.2456;;;;
2021/01/28 10:11:28;;;;;;;8.4;3.4;;;;;;;4.04;87.34863;929.209;;;;
2021/01/28 10:13:53;;;;;;;4.7;2.4;;;;;;;4.08;87.23438;929.1223;;;;
2021/01/28 10:16:22;;;;;;;3.1;2;;;;;;;4.15;87.09961;929.0574;;;;
2021/01/28 10:18:47;;;;;;;4.7;2.1;;;;;;;4.2;86.66211;928.9307;;;;
2021/01/28 10:21:13;;;;;;;5.8;2.9;;;;;;;4.03;87.6748;928.9341;;;;
2021/01/28 10:23:38;;;;;;;3.1;1.6;;;;;;;4.05;87.92578;928.8304;;;;
2021/01/28 10:26:05;;;;;;;6.9;1.8;;;;;;;4.1;87.53027;928.8187;;;;
2021/01/28 10:28:30;;;;;;;3.7;1.1;;;;;;;3.94;87.82324;928.7603;;;;
2021/01/28 10:30:55;;;;;;;1.9;1;;;;;;;3.77;88.81055;928.6727;;;;
2021/01/28 10:33:21;;;;;;;0.8;0.8;;;;;;;3.84;89.25098;928.5655;;;;
2021/01/28 10:35:49;;;;;;;2.5;2;;;;;;;3.87;89.24707;928.448;;;;
2021/01/28 10:38:14;;;;;;;3.6;2.1;;;;;;;3.78;89.49805;928.5012;;;;
2021/01/28 10:40:42;;;;;;;4.8;1.9;;;;;;;3.83;89.45313;928.4426;;;;
2021/01/28 10:43:07;;;;;;;2;1;;;;;;;3.9;89.53613;928.3005;;;;
2021/01/28 10:45:36;;;;;;;4.3;3;;;;;;;3.84;89.9834;928.3105;;;;
2021/01/28 10:48:01;;;;;;;8.6;3.5;;;;;;;3.86;89.95313;928.2958;;;;
2021/01/28 10:50:30;;;;;;;474;188.2;;;;;;;3.94;89.58691;928.2004;;;;
2021/01/28 10:52:56;;;;;;;11.4;6.2;;;;;;;3.99;89.37305;928.1674;;;;
2021/01/28 10:55:24;;;;;;;7;4.7;;;;;;;4.06;88.9834;928.1114;;;;
2021/01/28 10:57:52;;;;;;;18.9;5.6;;;;;;;3.96;89.14258;928.0945;;;;
2021/01/28 11:00:18;;;;;;;12.7;5.9;;;;;;;3.89;89.04883;928.1593;;;;
2021/01/28 11:02:46;;;;;;;478.7;177.1;;;;;;;3.78;89.49805;928.0564;;;;
2021/01/28 11:05:18;;;;;;;8;4.6;;;;;;;3.55;90.83203;928.0865;;;;
2021/01/28 11:07:48;;;;;;;169.4;66.7;;;;;;;3.54;91.33594;928.0265;;;;
2021/01/28 11:10:20;;;;;;;162.7;59;;;;;;;3.71;91.67383;928.0385;;;;
2021/01/28 11:12:52;;;;;;;12.3;7.4;;;;;;;3.78;91.58887;928.0555;;;;
2021/01/28 11:15:24;;;;;;;128.9;47.1;;;;;;;3.77;91.77734;928.0413;;;;
2021/01/28 11:17:50;;;;;;;279.7;106;;;;;;;3.98;91.25977;927.9539;;;;
2021/01/28 11:20:15;;;;;;;9.1;3.9;;;;;;;4.11;90.32227;928.0288;;;;
2021/01/28 11:22:43;;;;;;;8.2;4.4;;;;;;;4.18;89.54785;927.9771;;;;
2021/01/28 11:25:08;;;;;;;2.6;2.1;;;;;;;4.08;89.47266;928.0457;;;;
2021/01/28 11:27:38;;;;;;;4.1;2.4;;;;;;;4.13;89.25684;927.9464;;;;
2021/01/28 11:30:08;;;;;;;6;3.1;;;;;;;4.13;89.42773;927.822;;;;
2021/01/28 11:32:38;;;;;;;4.5;2.8;;;;;;;4.09;90.00293;927.8954;;;;
2021/01/28 11:35:03;;;;;;;2.6;1.6;;;;;;;4.01;90.8291;927.7617;;;;
2021/01/28 11:37:33;;;;;;;3.9;2.4;;;;;;;4.03;90.95703;927.7935;;;;
2021/01/28 11:40:03;;;;;;;4.2;2.5;;;;;;;4.02;91.08789;927.7342;;;;
2021/01/28 11:42:28;;;;;;;4.5;2.2;;;;;;;3.95;91.13086;927.74;;;;
2021/01/28 11:44:57;;;;;;;1.9;1.2;;;;;;;3.9;91.54785;927.7211;;;;
2021/01/28 11:47:24;;;;;;;5.9;2.6;;;;;;;3.97;91.66309;927.5371;;;;
2021/01/28 11:49:47;;;;;;;2.2;1.1;;;;;;;4.03;91.67676;927.6328;;;;
2021/01/28 11:52:13;;;;;;;1.5;1.1;;;;;;;4.02;91.5625;927.4894;;;;
2021/01/28 11:54:38;;;;;;;2;1.1;;;;;;;4.16;90.9834;927.5364;;;;
2021/01/28 11:57:03;;;;;;;0.5;0.5;;;;;;;4.2;90.8457;927.4117;;;;
2021/01/28 11:59:29;;;;;;;1.3;1;;;;;;;4.33;90.73926;927.4945;;;;
2021/01/28 12:01:54;;;;;;;4.7;3.2;;;;;;;4.47;90.06055;927.3858;;;;
2021/01/28 12:04:22;;;;;;;6.2;2.8;;;;;;;4.4;89.7959;927.4844;;;;
2021/01/28 12:06:47;;;;;;;3.3;2.1;;;;;;;4.31;90.07129;927.461;;;;
2021/01/28 12:09:14;;;;;;;1.6;1.5;;;;;;;4.41;89.92383;927.4983;;;;
2021/01/28 12:11:39;;;;;;;5.4;2.5;;;;;;;4.47;89.99316;927.3368;;;;
2021/01/28 12:14:08;;;;;;;8.9;2.2;;;;;;;4.61;89.3916;927.4612;;;;
2021/01/28 12:16:33;;;;;;;28.1;11.7;;;;;;;4.64;89.33105;927.3245;;;;
2021/01/28 12:19:00;;;;;;;3.5;2.1;;;;;;;4.6;89.28809;927.3899;;;;
2021/01/28 12:21:27;;;;;;;10.4;4.4;;;;;;;4.51;90.08105;927.2586;;;;
2021/01/28 12:23:53;;;;;;;4.6;3.1;;;;;;;4.45;90.34766;927.3995;;;;
2021/01/28 12:26:20;;;;;;;7.4;3.2;;;;;;;4.31;91.24219;927.3894;;;;
2021/01/28 12:28:45;;;;;;;7;4.6;;;;;;;4.16;91.69434;927.2899;;;;
2021/01/28 12:31:13;;;;;;;9.5;3.7;;;;;;;4.19;91.39453;927.2273;;;;
2021/01/28 12:33:39;;;;;;;11.8;6.4;;;;;;;4.25;91.57715;927.2742;;;;
2021/01/28 12:36:05;;;;;;;5.4;3.7;;;;;;;4.3;91.2832;927.3529;;;;
2021/01/28 12:38:32;;;;;;;10.4;4.2;;;;;;;4;92.23145;927.2548;;;;
2021/01/28 12:40:57;;;;;;;8.2;3.8;;;;;;;3.96;92.65039;927.2676;;;;
2021/01/28 12:43:25;;;;;;;10.7;5.3;;;;;;;3.92;92.9668;927.2332;;;;
2021/01/28 12:45:50;;;;;;;10.3;5.9;;;;;;;3.87;92.88965;927.2985;;;;
2021/01/28 12:48:16;;;;;;;10.5;4.9;;;;;;;3.96;92.80762;927.1928;;;;
2021/01/28 12:50:41;;;;;;;9.7;5.5;;;;;;;4.09;92.20605;927.0313;;;;
2021/01/28 12:53:09;;;;;;;8.9;5;;;;;;;4.04;92.48828;927.0897;;;;
2021/01/28 12:55:34;;;;;;;12.2;6.7;;;;;;;3.89;93.10742;927.0916;;;;
2021/01/28 12:58:01;;;;;;;12.9;6.9;;;;;;;3.89;93.53418;927.1183;;;;
2021/01/28 13:00:26;;;;;;;25.2;8.8;;;;;;;3.87;94.01367;927.0717;;;;
2021/01/28 13:02:52;;;;;;;13.5;4.9;;;;;;;3.97;93.14746;927.0803;;;;
2021/01/28 13:05:18;;;;;;;9.4;5.1;;;;;;;3.9;93.77441;927.2525;;;;
2021/01/28 13:07:44;;;;;;;6.7;4.1;;;;;;;3.95;93.75;927.0745;;;;
2021/01/28 13:10:12;;;;;;;7.4;4.4;;;;;;;3.98;94.15234;927.2357;;;;
2021/01/28 13:12:38;;;;;;;7.3;3.9;;;;;;;4.14;93.5332;927.1131;;;;
2021/01/28 13:15:03;;;;;;;97.7;46.1;;;;;;;4.18;93.24902;927.15;;;;
2021/01/28 13:17:30;;;;;;;51.6;24.5;;;;;;;4.18;93.25098;927.1777;;;;
2021/01/28 13:19:55;;;;;;;2.8;2;;;;;;;4.19;93.29785;927.1802;;;;
2021/01/28 13:22:24;;;;;;;2.2;1.6;;;;;;;4.31;93.40234;927.0246;;;;
2021/01/28 13:24:49;;;;;;;3.9;2.5;;;;;;;4.41;92.72852;926.9822;;;;
2021/01/28 13:27:15;;;;;;;2.7;1.8;;;;;;;4.42;92.35645;926.9476;;;;
2021/01/28 13:29:40;;;;;;;1.2;1;;;;;;;4.5;92.54297;926.7848;;;;
2021/01/28 13:32:05;;;;;;;4.4;3;;;;;;;4.66;91.85742;926.8162;;;;
2021/01/28 13:34:34;;;;;;;8;4.3;;;;;;;4.87;90.77539;926.7955;;;;
2021/01/28 13:36:59;;;;;;;2;1.2;;;;;;;4.87;90.26855;926.7347;;;;
2021/01/28 13:39:31;;;;;;;1.7;1.4;;;;;;;4.94;90.21387;926.6267;;;;
2021/01/28 13:41:56;;;;;;;2.4;1.3;;;;;;;4.9;90.18457;926.5916;;;;
2021/01/28 13:44:23;;;;;;;1.6;1;;;;;;;4.92;90.45801;926.7093;;;;
2021/01/28 13:46:48;;;;;;;2.8;1.5;;;;;;;5.02;90.18848;926.6052;;;;
2021/01/28 13:49:16;;;;;;;6.4;1.9;;;;;;;4.99;90.12207;926.5397;;;;
2021/01/28 13:51:41;;;;;;;3.4;2.2;;;;;;;5.02;90.21094;926.4694;;;;
2021/01/28 13:54:07;;;;;;;3.4;1.4;;;;;;;5.14;90.09863;926.5022;;;;
2021/01/28 13:56:32;;;;;;;1.5;0.6;;;;;;;5.16;89.67578;926.3983;;;;
2021/01/28 13:59:00;;;;;;;0.2;0.2;;;;;;;5.29;89.45605;926.2697;;;;
2021/01/28 14:01:25;;;;;;;0.6;0.3;;;;;;;5.36;88.80371;926.1219;;;;
2021/01/28 14:03:52;;;;;;;4.4;2.6;;;;;;;5.47;88.79199;926.1216;;;;
2021/01/28 14:06:17;;;;;;;5.3;2.4;;;;;;;5.51;87.9668;926.0162;;;;
2021/01/28 14:08:45;;;;;;;4.1;1.9;;;;;;;5.47;88.33008;926.1239;;;;
2021/01/28 14:11:09;;;;;;;0.9;0.6;;;;;;;5.42;88.64551;926.077;;;;
2021/01/28 14:13:38;;;;;;;1.5;1;;;;;;;5.32;89.26758;926.1373;;;;
2021/01/28 14:16:03;;;;;;;2.3;1.3;;;;;;;5.12;90.53418;926.1028;;;;
2021/01/28 14:18:29;;;;;;;1;0.8;;;;;;;5.06;91.41309;926.2403;;;;
2021/01/28 14:20:54;;;;;;;5.7;2.7;;;;;;;5.08;91.56348;926.0803;;;;
2021/01/28 14:23:21;;;;;;;2.4;1.8;;;;;;;5.09;91.35156;925.8753;;;;
2021/01/28 14:25:46;;;;;;;20.4;7;;;;;;;5.17;91.05371;925.9802;;;;
2021/01/28 14:28:14;;;;;;;1.9;1.2;;;;;;;5.18;91.57422;925.918;;;;
2021/01/28 14:30:39;;;;;;;2.1;1.2;;;;;;;5.02;92.5332;926.135;;;;
2021/01/28 14:33:09;;;;;;;8.6;3.1;;;;;;;4.99;92.8877;926.0073;;;;
2021/01/28 14:35:34;;;;;;;18.2;7.9;;;;;;;5.01;93.85938;925.9187;;;;
2021/01/28 14:37:59;;;;;;;2.9;1.9;;;;;;;4.86;94.1748;925.8861;;;;
2021/01/28 14:40:24;;;;;;;7.4;3.4;;;;;;;5.01;94.49023;925.8745;;;;
2021/01/28 14:42:53;;;;;;;2.1;1.9;;;;;;;5.06;94.44629;926.0675;;;;
2021/01/28 14:45:18;;;;;;;4.7;2.6;;;;;;;4.96;93.81543;926.0292;;;;
2021/01/28 14:47:45;;;;;;;4.8;2.7;;;;;;;4.85;93.8252;926.1715;;;;
2021/01/28 14:50:10;;;;;;;5.4;3.3;;;;;;;4.94;93.70801;926.2355;;;;
2021/01/28 14:52:36;;;;;;;7;4.1;;;;;;;4.94;93.84277;926.1362;;;;
2021/01/28 14:55:01;;;;;;;3.3;2.3;;;;;;;4.81;94.17578;926.3516;;;;
2021/01/28 14:57:27;;;;;;;3.8;1.9;;;;;;;4.84;94.35254;926.3795;;;;
2021/01/28 14:59:53;;;;;;;2.5;1.5;;;;;;;4.72;94.80957;926.3164;;;;
2021/01/28 15:02:20;;;;;;;3.2;1.8;;;;;;;4.74;94.83594;926.4097;;;;
2021/01/28 15:04:45;;;;;;;4;2.3;;;;;;;4.53;95.21973;925.9205;;;;
2021/01/28 15:07:10;;;;;;;4.3;2;;;;;;;4.53;96.37695;926.168;;;;
2021/01/28 15:09:35;;;;;;;2;1.6;;;;;;;4.73;96.21973;926.1816;;;;
2021/01/28 15:12:04;;;;;;;3.8;2.5;;;;;;;4.93;95.27246;926.211;;;;
2021/01/28 15:14:32;;;;;;;7.5;3;;;;;;;4.91;94.55859;926.2722;;;;
2021/01/28 15:16:57;;;;;;;4;2.3;;;;;;;4.95;94.37695;926.171;;;;
2021/01/28 15:19:24;;;;;;;9.6;4.5;;;;;;;4.96;94.2666;925.8564;;;;
2021/01/28 15:21:50;;;;;;;4;2.7;;;;;;;4.93;94.21289;925.9001;;;;
2021/01/28 15:24:17;;;;;;;15.2;5.8;;;;;;;4.98;94.24805;925.7311;;;;
2021/01/28 15:26:42;;;;;;;5;2.1;;;;;;;4.98;94.24805;925.8669;;;;
2021/01/28 15:29:08;;;;;;;3;2.2;;;;;;;4.75;95.2793;925.8397;;;;
2021/01/28 15:31:33;;;;;;;5.9;2.9;;;;;;;4.83;95.17188;925.8006;;;;
2021/01/28 15:33:59;;;;;;;9.2;6;;;;;;;4.84;95.40039;925.9253;;;;
2021/01/28 15:36:24;;;;;;;5.4;2.8;;;;;;;4.87;95.31641;925.8768;;;;
2021/01/28 15:38:50;;;;;;;2.7;1.7;;;;;;;4.77;95.74512;926.0323;;;;
2021/01/28 15:41:15;;;;;;;5.2;2.3;;;;;;;4.8;96.46094;925.9672;;;;
2021/01/28 15:43:40;;;;;;;5.4;1.6;;;;;;;4.91;96.10254;925.9623;;;;